createdAt,value
2023-01-23T00:02:18.428Z,0.40
2023-01-23T00:04:45.244Z,0.40
2023-01-23T00:07:11.722Z,0.50
2023-01-23T00:09:38.189Z,0.40
2023-01-23T00:12:04.672Z,0.50
2023-01-23T00:14:31.156Z,0.50
2023-01-23T00:16:57.709Z,0.40
2023-01-23T00:19:24.204Z,0.40
2023-01-23T00:21:50.698Z,0.40
2023-01-23T00:24:17.207Z,0.50
2023-01-23T00:26:43.691Z,0.50
2023-01-23T00:29:10.316Z,0.40
2023-01-23T00:31:37.253Z,0.40
2023-01-23T00:34:03.852Z,0.40
2023-01-23T00:36:30.351Z,0.50
2023-01-23T00:38:56.895Z,0.40
2023-01-23T00:41:23.403Z,0.40
2023-01-23T00:43:51.827Z,0.40
2023-01-23T00:46:18.337Z,0.40
2023-01-23T00:48:44.901Z,0.40
2023-01-23T00:51:11.495Z,0.40
2023-01-23T00:53:38.113Z,0.30
2023-01-23T00:56:04.596Z,0.30
2023-01-23T00:58:31.149Z,0.30
2023-01-23T01:00:57.617Z,0.40
2023-01-23T01:03:25.156Z,0.40
2023-01-23T01:05:51.679Z,0.40
2023-01-23T01:08:18.176Z,0.40
2023-01-23T01:10:44.652Z,0.40
2023-01-23T01:13:11.153Z,0.40
2023-01-23T01:15:37.668Z,0.40
2023-01-23T01:18:04.173Z,0.40
2023-01-23T01:20:30.644Z,0.40
2023-01-23T01:22:57.135Z,0.40
2023-01-23T01:25:23.637Z,0.40
2023-01-23T01:27:50.133Z,0.30
2023-01-23T01:30:16.725Z,0.40
2023-01-23T01:32:43.281Z,0.40
2023-01-23T01:35:09.814Z,0.40
2023-01-23T01:37:36.336Z,0.40
2023-01-23T01:40:03.252Z,0.40
2023-01-23T01:42:29.968Z,0.40
2023-01-23T01:44:56.593Z,0.50
2023-01-23T01:47:23.143Z,0.50
2023-01-23T01:49:49.614Z,0.50
2023-01-23T01:52:16.108Z,0.50
2023-01-23T01:54:42.686Z,0.60
2023-01-23T01:57:09.204Z,0.50
2023-01-23T01:59:35.688Z,0.50
2023-01-23T02:02:05.071Z,0.50
2023-01-23T02:04:31.622Z,0.50
2023-01-23T02:06:58.119Z,0.50
2023-01-23T02:09:24.605Z,0.50
2023-01-23T02:11:51.120Z,0.50
2023-01-23T02:14:17.604Z,0.50
2023-01-23T02:16:50.007Z,0.50
2023-01-23T02:19:16.560Z,0.60
2023-01-23T02:21:43.484Z,0.50
2023-01-23T02:24:10.050Z,0.50
2023-01-23T02:26:36.630Z,0.50
2023-01-23T02:29:03.168Z,0.50
2023-01-23T02:31:29.880Z,0.50
2023-01-23T02:33:56.426Z,0.50
2023-01-23T02:36:22.968Z,0.50
2023-01-23T02:38:50.908Z,0.60
2023-01-23T02:41:17.376Z,0.50
2023-01-23T02:43:43.937Z,0.60
2023-01-23T02:46:10.515Z,0.50
2023-01-23T02:48:37.343Z,0.50
2023-01-23T02:51:03.917Z,0.50
2023-01-23T02:53:30.569Z,0.50
2023-01-23T02:55:58.687Z,0.40
2023-01-23T02:58:43.878Z,0.40
2023-01-23T03:01:10.443Z,0.40
2023-01-23T03:03:37.035Z,0.40
2023-01-23T03:06:04.027Z,0.40
2023-01-23T03:08:34.223Z,0.40
2023-01-23T03:11:00.703Z,0.40
2023-01-23T03:13:27.193Z,0.40
2023-01-23T03:15:53.716Z,0.40
2023-01-23T03:18:20.445Z,0.40
2023-01-23T03:20:46.920Z,0.30
2023-01-23T03:23:14.568Z,0.40
2023-01-23T03:25:41.077Z,0.40
2023-01-23T03:28:27.550Z,0.30
2023-01-23T03:30:54.056Z,0.40
2023-01-23T03:33:20.587Z,0.40
2023-01-23T03:35:47.076Z,0.40
2023-01-23T03:38:15.874Z,0.40
2023-01-23T03:41:00.939Z,0.40
2023-01-23T03:43:27.444Z,0.40
2023-01-23T03:45:53.969Z,0.40
2023-01-23T03:48:20.456Z,0.40
2023-01-23T03:50:47.179Z,0.40
2023-01-23T03:53:13.756Z,0.40
2023-01-23T03:55:40.268Z,0.40
2023-01-23T03:58:06.756Z,0.40
2023-01-23T04:00:33.288Z,0.40
2023-01-23T04:02:59.920Z,0.40
2023-01-23T04:05:26.668Z,0.40
2023-01-23T04:07:53.184Z,0.40
2023-01-23T04:10:19.918Z,0.50
2023-01-23T04:12:46.576Z,0.50
2023-01-23T04:15:13.115Z,0.50
2023-01-23T04:17:42.116Z,0.50
2023-01-23T04:20:08.923Z,0.50
2023-01-23T04:22:35.517Z,0.50
2023-01-23T04:25:01.988Z,0.50
2023-01-23T04:27:28.490Z,0.50
2023-01-23T04:29:55.009Z,0.50
2023-01-23T04:32:21.520Z,0.50
2023-01-23T04:34:47.987Z,0.50
2023-01-23T04:37:14.483Z,0.50
2023-01-23T04:39:40.957Z,0.40
2023-01-23T04:42:07.459Z,0.40
2023-01-23T04:44:33.963Z,0.30
2023-01-23T04:47:00.526Z,0.30
2023-01-23T04:49:27.030Z,0.30
2023-01-23T04:51:53.503Z,0.30
2023-01-23T04:54:20.020Z,0.30
2023-01-23T04:56:46.558Z,0.30
2023-01-23T04:59:13.053Z,0.30
2023-01-23T05:01:39.631Z,0.30
2023-01-23T05:04:06.182Z,0.30
2023-01-23T05:06:32.656Z,0.30
2023-01-23T05:08:59.197Z,0.40
2023-01-23T05:11:25.753Z,0.40
2023-01-23T05:13:52.321Z,0.40
2023-01-23T05:16:18.860Z,0.40
2023-01-23T05:18:45.341Z,0.40
2023-01-23T05:21:11.880Z,0.40
2023-01-23T05:23:38.567Z,0.40
2023-01-23T05:26:05.140Z,0.40
2023-01-23T05:28:31.726Z,0.40
2023-01-23T05:30:58.289Z,0.50
2023-01-23T05:33:24.874Z,0.50
2023-01-23T05:35:51.356Z,0.50
2023-01-23T05:38:17.842Z,0.50
2023-01-23T05:40:44.371Z,0.50
2023-01-23T05:43:10.945Z,0.60
2023-01-23T05:45:37.443Z,0.60
2023-01-23T05:48:03.904Z,0.60
2023-01-23T05:50:30.380Z,0.60
2023-01-23T05:52:56.875Z,0.60
2023-01-23T05:55:23.351Z,0.60
2023-01-23T05:57:49.933Z,0.60
2023-01-23T06:00:16.436Z,0.50
2023-01-23T06:02:43.091Z,0.50
2023-01-23T06:05:09.658Z,0.50
2023-01-23T06:07:37.339Z,0.50
2023-01-23T06:10:03.853Z,0.50
2023-01-23T06:12:30.380Z,0.50
2023-01-23T06:14:56.912Z,0.50
2023-01-23T06:17:23.424Z,0.50
2023-01-23T06:19:49.935Z,0.60
2023-01-23T06:22:16.469Z,0.60
2023-01-23T06:24:43.000Z,0.60
2023-01-23T06:27:09.572Z,0.60
2023-01-23T06:29:36.116Z,0.60
2023-01-23T06:32:02.597Z,0.60
2023-01-23T06:34:29.173Z,0.60
2023-01-23T06:36:55.644Z,0.60
2023-01-23T06:39:22.124Z,0.60
2023-01-23T06:41:48.586Z,0.60
2023-01-23T06:44:15.079Z,0.50
2023-01-23T06:46:41.627Z,0.60
2023-01-23T06:49:08.152Z,0.60
2023-01-23T06:51:34.735Z,0.60
2023-01-23T06:54:01.313Z,0.60
2023-01-23T06:56:27.771Z,0.60
2023-01-23T06:58:54.325Z,0.60
2023-01-23T07:01:20.877Z,0.60
2023-01-23T07:03:47.615Z,0.60
2023-01-23T07:06:14.105Z,0.60
2023-01-23T07:08:40.653Z,0.60
2023-01-23T07:11:07.158Z,0.60
2023-01-23T07:13:33.707Z,0.60
2023-01-23T07:16:00.210Z,0.60
2023-01-23T07:18:28.542Z,0.70
2023-01-23T07:20:55.039Z,0.70
2023-01-23T07:23:21.545Z,0.70
2023-01-23T07:25:48.038Z,0.70
2023-01-23T07:28:14.526Z,0.70
2023-01-23T07:30:41.048Z,0.70
2023-01-23T07:33:07.544Z,0.70
2023-01-23T07:35:34.060Z,0.70
2023-01-23T07:38:00.544Z,0.70
2023-01-23T07:40:27.114Z,0.60
2023-01-23T07:42:53.662Z,0.70
2023-01-23T07:45:20.157Z,0.70
2023-01-23T07:47:46.772Z,0.70
2023-01-23T07:50:13.340Z,0.70
2023-01-23T07:52:39.814Z,0.70
2023-01-23T07:55:06.297Z,0.70
2023-01-23T07:57:33.943Z,0.70
2023-01-23T08:00:00.502Z,0.70
2023-01-23T08:02:27.002Z,0.80
2023-01-23T08:04:53.484Z,0.70
2023-01-23T08:07:20.027Z,0.70
2023-01-23T08:09:46.513Z,0.70
2023-01-23T08:12:13.041Z,0.70
2023-01-23T08:14:40.655Z,0.70
2023-01-23T08:17:07.205Z,0.70
2023-01-23T08:19:33.707Z,0.70
2023-01-23T08:22:00.200Z,0.80
2023-01-23T08:24:26.879Z,0.80
2023-01-23T08:26:53.373Z,0.90
2023-01-23T08:29:19.873Z,0.90
2023-01-23T08:31:46.391Z,0.90
2023-01-23T08:34:12.932Z,0.90
2023-01-23T08:36:39.589Z,0.90
2023-01-23T08:39:06.071Z,1.00
2023-01-23T08:41:32.552Z,1.00
2023-01-23T08:44:01.603Z,1.00
2023-01-23T08:46:28.708Z,0.90
2023-01-23T08:48:55.227Z,0.80
2023-01-23T08:51:21.769Z,0.80
2023-01-23T08:53:48.273Z,0.90
2023-01-23T08:56:16.830Z,0.80
2023-01-23T08:58:43.755Z,0.90
2023-01-23T09:01:10.298Z,0.80
2023-01-23T09:03:36.849Z,0.80
2023-01-23T09:06:03.425Z,0.80
2023-01-23T09:08:29.903Z,0.90
2023-01-23T09:10:56.401Z,0.90
2023-01-23T09:13:22.924Z,0.90
2023-01-23T09:15:49.449Z,0.90
2023-01-23T09:18:15.999Z,1.00
2023-01-23T09:20:42.613Z,1.00
2023-01-23T09:23:09.121Z,1.00
2023-01-23T09:25:35.767Z,1.10
2023-01-23T09:28:02.295Z,1.10
2023-01-23T09:30:28.831Z,1.20
2023-01-23T09:32:55.361Z,1.30
2023-01-23T09:35:23.341Z,1.30
2023-01-23T09:38:02.345Z,1.30
2023-01-23T09:40:29.017Z,1.30
2023-01-23T09:42:55.506Z,1.30
2023-01-23T09:45:22.112Z,1.40
2023-01-23T09:47:48.615Z,1.40
2023-01-23T09:50:15.165Z,1.40
2023-01-23T09:52:41.702Z,1.40
2023-01-23T09:55:08.204Z,1.50
2023-01-23T09:57:34.713Z,1.40
2023-01-23T10:00:01.235Z,1.50
2023-01-23T10:02:27.919Z,1.50
2023-01-23T10:04:54.552Z,1.50
2023-01-23T10:07:21.079Z,1.50
2023-01-23T10:09:47.620Z,1.40
2023-01-23T10:12:14.096Z,1.30
2023-01-23T10:14:40.727Z,1.40
2023-01-23T10:17:07.236Z,1.50
2023-01-23T10:19:33.910Z,1.50
2023-01-23T10:22:01.449Z,1.50
2023-01-23T10:24:28.014Z,1.50
2023-01-23T10:26:54.546Z,1.60
2023-01-23T10:29:21.163Z,1.60
2023-01-23T10:31:47.788Z,1.60
2023-01-23T10:34:14.345Z,1.70
2023-01-23T10:36:48.134Z,1.70
2023-01-23T10:39:20.281Z,1.70
2023-01-23T10:41:51.097Z,1.70
2023-01-23T10:44:17.839Z,1.60
2023-01-23T10:46:44.490Z,1.60
2023-01-23T10:49:11.024Z,1.60
2023-01-23T10:51:37.538Z,1.60
2023-01-23T10:54:06.280Z,1.70
2023-01-23T10:56:33.392Z,1.60
2023-01-23T10:59:00.099Z,1.50
2023-01-23T11:01:26.692Z,1.50
2023-01-23T11:03:53.268Z,1.50
2023-01-23T11:06:19.861Z,1.50
2023-01-23T11:08:46.345Z,1.40
2023-01-23T11:11:12.867Z,1.30
2023-01-23T11:13:39.354Z,1.20
2023-01-23T11:16:06.224Z,1.30
2023-01-23T11:18:33.052Z,1.30
2023-01-23T11:20:59.545Z,1.20
2023-01-23T11:23:26.102Z,1.30
2023-01-23T11:25:52.684Z,1.30
2023-01-23T11:28:19.195Z,1.30
2023-01-23T11:30:45.897Z,1.30
2023-01-23T11:33:12.452Z,1.40
2023-01-23T11:35:38.987Z,1.40
2023-01-23T11:38:05.736Z,1.30
2023-01-23T11:40:32.272Z,1.30
2023-01-23T11:42:58.903Z,1.30
2023-01-23T11:45:25.393Z,1.20
2023-01-23T11:47:51.921Z,1.20
2023-01-23T11:50:18.533Z,1.30
2023-01-23T11:52:45.152Z,1.30
2023-01-23T11:55:11.665Z,1.30
2023-01-23T11:57:38.154Z,1.40
2023-01-23T12:00:07.254Z,1.40
2023-01-23T12:02:33.884Z,1.50
2023-01-23T12:05:00.398Z,1.50
2023-01-23T12:07:26.894Z,1.40
2023-01-23T12:09:53.407Z,1.50
2023-01-23T12:12:19.958Z,1.50
2023-01-23T12:14:46.486Z,1.50
2023-01-23T12:17:13.057Z,1.50
2023-01-23T12:19:39.526Z,1.50
2023-01-23T12:22:06.324Z,1.50
2023-01-23T12:24:32.827Z,1.50
2023-01-23T12:26:59.293Z,1.60
2023-01-23T12:29:25.827Z,1.70
2023-01-23T12:31:52.459Z,1.80
2023-01-23T12:34:19.411Z,1.80
2023-01-23T12:37:06.281Z,1.90
2023-01-23T12:39:34.279Z,1.90
2023-01-23T12:42:03.729Z,1.80
2023-01-23T12:44:30.292Z,1.80
2023-01-23T12:46:56.969Z,1.80
2023-01-23T12:49:23.552Z,1.80
2023-01-23T12:51:50.070Z,1.80
2023-01-23T12:54:16.638Z,1.90
2023-01-23T12:56:43.386Z,1.90
2023-01-23T12:59:10.311Z,1.90
2023-01-23T13:01:36.777Z,2.00
2023-01-23T13:04:03.366Z,2.00
2023-01-23T13:06:29.848Z,2.10
2023-01-23T13:09:05.495Z,2.10
2023-01-23T13:11:42.013Z,2.00
2023-01-23T13:14:08.528Z,2.00
2023-01-23T13:16:35.174Z,2.00
2023-01-23T13:19:20.516Z,2.00
2023-01-23T13:22:02.994Z,2.00
2023-01-23T13:24:48.180Z,2.00
2023-01-23T13:27:14.655Z,2.00
2023-01-23T13:29:41.346Z,2.00
2023-01-23T13:32:08.060Z,2.00
2023-01-23T13:34:34.640Z,1.90
2023-01-23T13:37:01.112Z,1.90
2023-01-23T13:39:27.627Z,1.80
2023-01-23T13:41:54.177Z,1.80
2023-01-23T13:44:22.981Z,1.80
2023-01-23T14:20:55.338Z,1.60
2023-01-23T14:23:22.128Z,1.60
2023-01-23T14:25:48.680Z,1.50
2023-01-23T14:28:15.272Z,1.50
2023-01-23T14:30:41.771Z,1.50
2023-01-23T14:33:08.267Z,1.60
2023-01-23T14:35:34.783Z,1.50
2023-01-23T14:38:01.339Z,1.40
2023-01-23T14:40:33.199Z,1.40
2023-01-23T14:43:04.068Z,1.40
2023-01-23T14:45:32.872Z,1.40
2023-01-23T14:48:05.671Z,1.40
2023-01-23T14:50:33.180Z,1.40
2023-01-23T14:52:59.805Z,1.40
2023-01-23T14:55:29.905Z,1.40
2023-01-23T14:57:56.688Z,1.40
2023-01-23T15:00:23.191Z,1.40
2023-01-23T15:02:54.399Z,1.40
2023-01-23T15:05:23.484Z,1.30
2023-01-23T15:07:50.233Z,1.30
2023-01-23T15:10:16.797Z,1.30
2023-01-23T15:12:43.281Z,1.30
2023-01-23T15:15:09.815Z,1.40
2023-01-23T15:17:36.288Z,1.30
2023-01-23T15:20:02.751Z,1.30
2023-01-23T15:22:29.218Z,1.30
2023-01-23T15:24:55.935Z,1.40
2023-01-23T15:27:23.474Z,1.30
2023-01-23T15:29:49.979Z,1.30
2023-01-23T15:32:16.500Z,1.30
2023-01-23T15:34:43.264Z,1.30
2023-01-23T15:37:09.751Z,1.30
2023-01-23T15:39:36.341Z,1.30
2023-01-23T15:42:02.844Z,1.20
2023-01-23T15:44:29.341Z,1.20
2023-01-23T15:46:55.878Z,1.20
2023-01-23T15:49:25.872Z,1.20
2023-01-23T15:51:53.007Z,1.20
2023-01-23T15:54:19.488Z,1.20
2023-01-23T15:56:48.807Z,1.10
2023-01-23T15:59:17.397Z,1.10
2023-01-23T16:01:43.915Z,1.00
2023-01-23T16:04:10.462Z,1.00
2023-01-23T16:06:37.102Z,1.00
2023-01-23T16:09:05.690Z,1.10
2023-01-23T16:11:32.674Z,1.10
2023-01-23T16:13:59.297Z,1.10
2023-01-23T16:16:25.834Z,1.10
2023-01-23T16:18:52.422Z,1.10
2023-01-23T16:21:18.886Z,1.10
2023-01-23T16:23:47.519Z,1.10
2023-01-23T16:26:14.470Z,1.10
2023-01-23T16:28:41.103Z,1.10
2023-01-23T16:31:07.593Z,1.10
2023-01-23T16:33:34.159Z,1.00
2023-01-23T16:36:00.646Z,1.00
2023-01-23T16:38:27.139Z,1.00
2023-01-23T16:40:53.808Z,1.00
2023-01-23T16:43:20.384Z,1.00
2023-01-23T16:45:46.890Z,1.00
2023-01-23T16:48:21.799Z,1.10
2023-01-23T16:50:52.166Z,1.10
2023-01-23T16:53:18.685Z,1.10
2023-01-23T16:55:45.167Z,1.20
2023-01-23T16:58:11.649Z,1.20
2023-01-23T17:00:38.225Z,1.20
2023-01-23T17:03:04.793Z,1.20
2023-01-23T17:05:31.391Z,1.10
2023-01-23T17:07:57.940Z,1.00
2023-01-23T17:10:26.215Z,1.00
2023-01-23T17:12:56.206Z,1.10
2023-01-23T17:15:22.893Z,1.10
2023-01-23T17:17:51.136Z,1.10
2023-01-23T17:20:17.700Z,1.10
2023-01-23T17:22:44.265Z,1.10
2023-01-23T17:25:10.750Z,1.10
2023-01-23T17:27:44.964Z,1.10
2023-01-23T17:30:12.746Z,1.00
2023-01-23T17:32:39.852Z,1.10
2023-01-23T17:35:06.372Z,1.10
2023-01-23T17:37:32.836Z,1.10
2023-01-23T17:39:59.353Z,1.10
2023-01-23T17:42:26.044Z,1.00
2023-01-23T17:44:52.627Z,1.10
2023-01-23T17:47:19.208Z,1.10
2023-01-23T17:49:46.772Z,1.10
2023-01-23T17:52:13.271Z,1.10
2023-01-23T17:54:39.819Z,1.20
2023-01-23T17:57:06.373Z,1.20
2023-01-23T17:59:32.991Z,1.20
2023-01-23T18:01:59.573Z,1.20
2023-01-23T18:04:26.146Z,1.20
2023-01-23T18:06:52.770Z,1.20
2023-01-23T18:09:19.996Z,1.20
2023-01-23T18:11:54.322Z,1.20
2023-01-23T18:14:20.886Z,1.20
2023-01-23T18:16:49.692Z,1.20
2023-01-23T18:19:16.413Z,1.20
2023-01-23T18:21:42.926Z,1.20
2023-01-23T18:24:09.474Z,1.20
2023-01-23T18:26:36.295Z,1.20
2023-01-23T18:29:02.773Z,1.20
2023-01-23T18:31:29.439Z,1.20
2023-01-23T18:33:56.004Z,1.20
2023-01-23T18:36:22.489Z,1.20
2023-01-23T18:38:49.044Z,1.30
2023-01-23T18:41:15.671Z,1.30
2023-01-23T18:43:43.629Z,1.20
2023-01-23T18:46:10.331Z,1.20
2023-01-23T18:48:36.820Z,1.20
2023-01-23T18:51:03.323Z,1.20
2023-01-23T18:53:29.783Z,1.20
2023-01-23T18:55:56.307Z,1.30
2023-01-23T18:58:22.817Z,1.30
2023-01-23T19:00:49.372Z,1.30
2023-01-23T19:03:15.930Z,1.20
2023-01-23T19:05:42.546Z,1.30
2023-01-23T19:08:09.275Z,1.30
2023-01-23T19:10:47.638Z,1.30
2023-01-23T19:13:15.144Z,1.40
2023-01-23T19:15:42.165Z,1.30
2023-01-23T19:18:08.715Z,1.30
2023-01-23T19:20:35.257Z,1.40
2023-01-23T19:23:01.802Z,1.40
2023-01-23T19:25:28.335Z,1.40
2023-01-23T19:27:55.961Z,1.40
2023-01-23T19:30:23.000Z,1.40
2023-01-23T19:32:49.737Z,1.40
2023-01-23T19:35:16.247Z,1.40
2023-01-23T19:37:44.270Z,1.30
2023-01-23T19:40:10.774Z,1.30
2023-01-23T19:42:45.358Z,1.30
2023-01-23T19:45:17.562Z,1.30
2023-01-23T19:47:44.468Z,1.30
2023-01-23T19:50:10.952Z,1.30
2023-01-23T19:52:37.485Z,1.30
2023-01-23T19:55:03.957Z,1.30
2023-01-23T19:57:30.505Z,1.30
2023-01-23T19:59:57.058Z,1.30
2023-01-23T20:02:25.498Z,1.30
2023-01-23T20:04:52.108Z,1.20
2023-01-23T20:07:18.641Z,1.30
2023-01-23T20:09:45.519Z,1.30
2023-01-23T20:12:12.069Z,1.30
2023-01-23T20:14:38.548Z,1.30
2023-01-23T20:17:05.132Z,1.30
2023-01-23T20:19:31.635Z,1.20
2023-01-23T20:21:58.157Z,1.30
2023-01-23T20:24:24.694Z,1.20
2023-01-23T20:26:51.705Z,1.30
2023-01-23T20:29:18.305Z,1.20
2023-01-23T20:31:44.851Z,1.20
2023-01-23T20:34:11.472Z,1.30
2023-01-23T20:36:37.988Z,1.30
2023-01-23T20:39:05.721Z,1.30
2023-01-23T20:41:35.424Z,1.30
2023-01-23T20:44:01.931Z,1.30
2023-01-23T20:46:28.728Z,1.30
2023-01-23T20:48:55.309Z,1.30
2023-01-23T20:51:21.816Z,1.30
2023-01-23T20:53:49.297Z,1.20
2023-01-23T20:56:15.898Z,1.20
2023-01-23T20:59:01.419Z,1.30
2023-01-23T21:01:28.009Z,1.20
2023-01-23T21:03:54.879Z,1.20
2023-01-23T21:06:21.482Z,1.20
2023-01-23T21:08:47.963Z,1.20
2023-01-23T21:11:14.464Z,1.20
2023-01-23T21:13:40.941Z,1.20
2023-01-23T21:16:07.542Z,1.20
2023-01-23T21:18:34.046Z,1.20
2023-01-23T21:21:00.516Z,1.10
2023-01-23T21:23:26.997Z,1.10
2023-01-23T21:25:53.465Z,1.10
2023-01-23T21:28:20.319Z,1.10
2023-01-23T21:30:46.891Z,1.20
2023-01-23T21:33:13.509Z,1.20
2023-01-23T21:35:40.256Z,1.20
2023-01-23T21:38:06.793Z,1.20
2023-01-23T21:40:33.350Z,1.20
2023-01-23T21:42:59.845Z,1.30
2023-01-23T21:45:26.353Z,1.30
2023-01-23T21:47:52.873Z,1.30
2023-01-23T21:50:19.356Z,1.30
2023-01-23T21:52:45.997Z,1.30
2023-01-23T21:55:12.472Z,1.30
2023-01-23T21:57:38.940Z,1.20
2023-01-23T22:00:24.360Z,1.20
2023-01-23T22:02:51.006Z,1.20
2023-01-23T22:05:17.543Z,1.20
2023-01-23T22:07:44.057Z,1.20
2023-01-23T22:10:10.582Z,1.20
2023-01-23T22:12:37.129Z,1.20
2023-01-23T22:15:03.630Z,1.20
2023-01-23T22:17:30.304Z,1.20
2023-01-23T22:19:56.796Z,1.30
2023-01-23T22:22:23.260Z,1.30
2023-01-23T22:24:49.746Z,1.20
2023-01-23T22:27:16.303Z,1.20
2023-01-23T22:29:43.409Z,1.20
2023-01-23T22:32:09.949Z,1.20
2023-01-23T22:34:36.544Z,1.20
2023-01-23T22:37:03.076Z,1.20
2023-01-23T22:39:29.904Z,1.20
2023-01-23T22:41:57.687Z,1.20
2023-01-23T22:44:24.233Z,1.20
2023-01-23T22:46:51.387Z,1.20
2023-01-23T22:49:18.008Z,1.20
2023-01-23T22:51:44.522Z,1.20
2023-01-23T22:54:11.121Z,1.20
2023-01-23T22:56:37.708Z,1.20
2023-01-23T22:59:04.231Z,1.20
2023-01-23T23:01:30.790Z,1.20
2023-01-23T23:03:57.804Z,1.20
2023-01-23T23:06:24.352Z,1.20
2023-01-23T23:08:50.915Z,1.10
2023-01-23T23:11:17.415Z,1.10
2023-01-23T23:13:43.950Z,1.00
2023-01-23T23:16:10.445Z,1.00
2023-01-23T23:18:39.194Z,1.10
2023-01-23T23:21:06.070Z,1.00
2023-01-23T23:23:32.574Z,1.10
2023-01-23T23:25:59.054Z,1.00
2023-01-23T23:28:25.584Z,1.10
2023-01-23T23:30:52.041Z,1.10
2023-01-23T23:33:18.589Z,1.10
2023-01-23T23:35:45.052Z,1.10
2023-01-23T23:38:11.557Z,1.10
2023-01-23T23:40:38.105Z,1.10
2023-01-23T23:43:04.659Z,1.10
2023-01-23T23:45:31.192Z,1.10
2023-01-23T23:47:57.711Z,1.10
2023-01-23T23:50:24.209Z,1.10
2023-01-23T23:52:50.722Z,1.10
2023-01-23T23:55:17.209Z,1.10
2023-01-23T23:57:43.913Z,1.10
